sensor_id;sensor_type;location;lat;lon;timestamp;pressure;altitude;pressure_sealevel;temperature;humidity
3668;BME280;24099;47.102;15.440;2023-04-15T00:00:50;95793.97;;;5.42;100.00
3668;BME280;24099;47.102;15.440;2023-04-15T00:03:19;95784.53;;;5.41;100.00
3668;BME280;24099;47.102;15.440;2023-04-15T00:05:48;95787.53;;;5.38;100.00
3668;BME280;24099;47.102;15.440;2023-04-15T00:08:16;95787.66;;;5.51;100.00
3668;BME280;24099;47.102;15.440;2023-04-15T00:10:45;95791.53;;;5.56;100.00
3668;BME280;24099;47.102;15.440;2023-04-15T00:13:13;95790.28;;;5.51;100.00
3668;BME280;24099;47.102;15.440;2023-04-15T00:15:41;95786.41;;;5.47;100.00
3668;BME280;24099;47.102;15.440;2023-04-15T00:18:10;95792.53;;;5.54;100.00
3668;BME280;24099;47.102;15.440;2023-04-15T00:20:37;95787.75;;;5.79;100.00
3668;BME280;24099;47.102;15.440;2023-04-15T00:23:05;95787.97;;;5.63;100.00
3668;BME280;24099;47.102;15.440;2023-04-15T00:25:34;95787.59;;;5.45;100.00
3668;BME280;24099;47.102;15.440;2023-04-15T00:28:03;95787.13;;;5.41;100.00
3668;BME280;24099;47.102;15.440;2023-04-15T00:30:31;95785.44;;;5.48;100.00
3668;BME280;24099;47.102;15.440;2023-04-15T00:32:59;95782.00;;;5.48;100.00
3668;BME280;24099;47.102;15.440;2023-04-15T00:35:27;95791.28;;;5.50;100.00
3668;BME280;24099;47.102;15.440;2023-04-15T00:37:58;95780.22;;;5.48;100.00
3668;BME280;24099;47.102;15.440;2023-04-15T00:40:26;95786.53;;;5.39;100.00
3668;BME280;24099;47.102;15.440;2023-04-15T00:42:54;95776.09;;;5.39;100.00
3668;BME280;24099;47.102;15.440;2023-04-15T00:45:23;95782.91;;;5.40;100.00
3668;BME280;24099;47.102;15.440;2023-04-15T00:47:51;95775.91;;;5.41;100.00
3668;BME280;24099;47.102;15.440;2023-04-15T00:50:18;95776.47;;;5.36;100.00
3668;BME280;24099;47.102;15.440;2023-04-15T00:52:46;95782.41;;;5.30;100.00
3668;BME280;24099;47.102;15.440;2023-04-15T00:55:15;95782.19;;;5.46;100.00
3668;BME280;24099;47.102;15.440;2023-04-15T00:57:42;95786.06;;;5.50;100.00
3668;BME280;24099;47.102;15.440;2023-04-15T01:00:14;95783.34;;;5.44;100.00
3668;BME280;24099;47.102;15.440;2023-04-15T01:02:44;95784.38;;;5.28;100.00
3668;BME280;24099;47.102;15.440;2023-04-15T01:05:12;95778.44;;;5.34;100.00
3668;BME280;24099;47.102;15.440;2023-04-15T01:07:42;95780.25;;;5.34;100.00
3668;BME280;24099;47.102;15.440;2023-04-15T01:10:10;95784.66;;;5.33;100.00
3668;BME280;24099;47.102;15.440;2023-04-15T01:12:38;95781.34;;;5.25;100.00
3668;BME280;24099;47.102;15.440;2023-04-15T01:15:07;95775.13;;;5.26;100.00
3668;BME280;24099;47.102;15.440;2023-04-15T01:17:36;95781.16;;;5.26;100.00
3668;BME280;24099;47.102;15.440;2023-04-15T01:20:08;95779.53;;;5.25;100.00
3668;BME280;24099;47.102;15.440;2023-04-15T01:22:38;95780.44;;;5.32;100.00
3668;BME280;24099;47.102;15.440;2023-04-15T01:25:10;95782.25;;;5.17;100.00
3668;BME280;24099;47.102;15.440;2023-04-15T01:27:41;95782.31;;;5.24;100.00
3668;BME280;24099;47.102;15.440;2023-04-15T01:30:10;95781.97;;;5.27;100.00
3668;BME280;24099;47.102;15.440;2023-04-15T01:32:38;95787.19;;;5.27;100.00
3668;BME280;24099;47.102;15.440;2023-04-15T01:35:06;95782.41;;;5.30;100.00
3668;BME280;24099;47.102;15.440;2023-04-15T01:37:34;95783.03;;;5.32;100.00
3668;BME280;24099;47.102;15.440;2023-04-15T01:40:03;95789.06;;;5.33;100.00
3668;BME280;24099;47.102;15.440;2023-04-15T01:42:32;95789.81;;;5.12;100.00
3668;BME280;24099;47.102;15.440;2023-04-15T01:45:01;95787.47;;;5.17;100.00
3668;BME280;24099;47.102;15.440;2023-04-15T01:47:29;95784.38;;;5.28;100.00
3668;BME280;24099;47.102;15.440;2023-04-15T01:49:57;95787.72;;;5.22;100.00
3668;BME280;24099;47.102;15.440;2023-04-15T01:52:25;95794.03;;;5.13;100.00
3668;BME280;24099;47.102;15.440;2023-04-15T01:54:53;95790.91;;;5.17;100.00
3668;BME280;24099;47.102;15.440;2023-04-15T01:57:21;95797.91;;;5.17;100.00
3668;BME280;24099;47.102;15.440;2023-04-15T01:59:48;95785.41;;;5.12;100.00
3668;BME280;24099;47.102;15.440;2023-04-15T02:02:18;95791.09;;;5.16;100.00
3668;BME280;24099;47.102;15.440;2023-04-15T02:04:46;95795.50;;;5.15;100.00
3668;BME280;24099;47.102;15.440;2023-04-15T02:07:14;95800.13;;;5.20;100.00
3668;BME280;24099;47.102;15.440;2023-04-15T02:09:42;95801.50;;;5.16;100.00
3668;BME280;24099;47.102;15.440;2023-04-15T02:12:11;95792.53;;;5.18;100.00
3668;BME280;24099;47.102;15.440;2023-04-15T02:14:39;95799.34;;;5.19;100.00
3668;BME280;24099;47.102;15.440;2023-04-15T02:17:07;95796.19;;;5.24;100.00
3668;BME280;24099;47.102;15.440;2023-04-15T02:19:36;95802.03;;;5.26;100.00
3668;BME280;24099;47.102;15.440;2023-04-15T02:22:04;95802.75;;;5.20;100.00
3668;BME280;24099;47.102;15.440;2023-04-15T02:24:33;95797.53;;;5.20;100.00
3668;BME280;24099;47.102;15.440;2023-04-15T02:27:02;95805.81;;;5.24;100.00
3668;BME280;24099;47.102;15.440;2023-04-15T02:29:31;95802.16;;;5.18;100.00
3668;BME280;24099;47.102;15.440;2023-04-15T02:32:00;95801.75;;;5.21;100.00
3668;BME280;24099;47.102;15.440;2023-04-15T02:34:28;95798.09;;;5.15;100.00
3668;BME280;24099;47.102;15.440;2023-04-15T02:36:58;95802.31;;;5.16;100.00
3668;BME280;24099;47.102;15.440;2023-04-15T02:39:26;95794.56;;;5.23;100.00
3668;BME280;24099;47.102;15.440;2023-04-15T02:41:54;95805.56;;;5.18;100.00
3668;BME280;24099;47.102;15.440;2023-04-15T02:44:25;95800.69;;;5.15;100.00
3668;BME280;24099;47.102;15.440;2023-04-15T02:46:57;95799.16;;;5.21;100.00
3668;BME280;24099;47.102;15.440;2023-04-15T02:49:25;95796.28;;;5.16;100.00
3668;BME280;24099;47.102;15.440;2023-04-15T02:51:55;95801.34;;;5.17;100.00
3668;BME280;24099;47.102;15.440;2023-04-15T02:54:25;95807.25;;;5.26;100.00
3668;BME280;24099;47.102;15.440;2023-04-15T02:56:54;95803.50;;;5.14;100.00
3668;BME280;24099;47.102;15.440;2023-04-15T02:59:22;95801.16;;;5.19;100.00
3668;BME280;24099;47.102;15.440;2023-04-15T03:01:50;95809.84;;;5.26;100.00
3668;BME280;24099;47.102;15.440;2023-04-15T03:04:18;95802.19;;;5.25;100.00
3668;BME280;24099;47.102;15.440;2023-04-15T03:06:46;95810.03;;;5.25;100.00
3668;BME280;24099;47.102;15.440;2023-04-15T03:09:14;95804.00;;;5.24;100.00
3668;BME280;24099;47.102;15.440;2023-04-15T03:11:44;95804.19;;;5.23;100.00
3668;BME280;24099;47.102;15.440;2023-04-15T03:14:12;95808.22;;;5.25;100.00
3668;BME280;24099;47.102;15.440;2023-04-15T03:16:43;95803.00;;;5.25;100.00
3668;BME280;24099;47.102;15.440;2023-04-15T03:19:13;95805.34;;;5.20;100.00
3668;BME280;24099;47.102;15.440;2023-04-15T03:21:42;95809.97;;;5.18;100.00
3668;BME280;24099;47.102;15.440;2023-04-15T03:24:10;95810.03;;;5.25;100.00
3668;BME280;24099;47.102;15.440;2023-04-15T03:26:38;95808.16;;;5.18;100.00
3668;BME280;24099;47.102;15.440;2023-04-15T03:29:13;95812.00;;;5.23;100.00
3668;BME280;24099;47.102;15.440;2023-04-15T03:31:41;95811.47;;;5.27;100.00
3668;BME280;24099;47.102;15.440;2023-04-15T03:34:08;95810.22;;;5.23;100.00
3668;BME280;24099;47.102;15.440;2023-04-15T03:36:37;95809.97;;;5.18;100.00
3668;BME280;24099;47.102;15.440;2023-04-15T03:39:04;95814.06;;;5.27;100.00
3668;BME280;24099;47.102;15.440;2023-04-15T03:41:32;95807.06;;;5.28;100.00
3668;BME280;24099;47.102;15.440;2023-04-15T03:44:00;95814.78;;;5.21;100.00
3668;BME280;24099;47.102;15.440;2023-04-15T03:46:29;95818.66;;;5.25;100.00
3668;BME280;24099;47.102;15.440;2023-04-15T03:48:57;95816.06;;;5.25;100.00
3668;BME280;24099;47.102;15.440;2023-04-15T03:51:25;95818.66;;;5.25;100.00
3668;BME280;24099;47.102;15.440;2023-04-15T03:53:53;95816.97;;;5.17;100.00
3668;BME280;24099;47.102;15.440;2023-04-15T03:56:22;95823.25;;;5.23;100.00
3668;BME280;24099;47.102;15.440;2023-04-15T03:58:50;95821.44;;;5.24;100.00
3668;BME280;24099;47.102;15.440;2023-04-15T04:01:18;95820.63;;;5.23;100.00
3668;BME280;24099;47.102;15.440;2023-04-15T04:03:48;95812.63;;;5.25;100.00
3668;BME280;24099;47.102;15.440;2023-04-15T04:06:16;95821.44;;;5.24;100.00
3668;BME280;24099;47.102;15.440;2023-04-15T04:08:43;95815.59;;;5.22;100.00
3668;BME280;24099;47.102;15.440;2023-04-15T04:11:11;95821.09;;;5.27;100.00
3668;BME280;24099;47.102;15.440;2023-04-15T04:13:39;95828.47;;;5.23;100.00
3668;BME280;24099;47.102;15.440;2023-04-15T04:16:07;95825.22;;;5.21;100.00
3668;BME280;24099;47.102;15.440;2023-04-15T04:18:35;95827.47;;;5.24;100.00
3668;BME280;24099;47.102;15.440;2023-04-15T04:21:04;95821.28;;;5.25;100.00
3668;BME280;24099;47.102;15.440;2023-04-15T04:23:33;95823.19;;;5.16;100.00
3668;BME280;24099;47.102;15.440;2023-04-15T04:26:00;95827.13;;;5.12;100.00
3668;BME280;24099;47.102;15.440;2023-04-15T04:28:28;95829.63;;;5.20;100.00
3668;BME280;24099;47.102;15.440;2023-04-15T04:30:56;95834.31;;;5.25;100.00
3668;BME280;24099;47.102;15.440;2023-04-15T04:33:23;95828.81;;;5.20;100.00
3668;BME280;24099;47.102;15.440;2023-04-15T04:35:51;95843.41;;;5.14;100.00
3668;BME280;24099;47.102;15.440;2023-04-15T04:38:21;95842.50;;;5.22;100.00
3668;BME280;24099;47.102;15.440;2023-04-15T04:40:48;95840.97;;;5.28;100.00
3668;BME280;24099;47.102;15.440;2023-04-15T04:43:16;95842.31;;;5.24;100.00
3668;BME280;24099;47.102;15.440;2023-04-15T04:45:44;95838.53;;;5.26;100.00
3668;BME280;24099;47.102;15.440;2023-04-15T04:48:12;95847.25;;;5.33;100.00
3668;BME280;24099;47.102;15.440;2023-04-15T04:50:40;95849.06;;;5.33;100.00
3668;BME280;24099;47.102;15.440;2023-04-15T04:53:08;95850.59;;;5.27;100.00
3668;BME280;24099;47.102;15.440;2023-04-15T04:55:37;95847.25;;;5.33;100.00
3668;BME280;24099;47.102;15.440;2023-04-15T04:58:05;95850.75;;;5.40;100.00
3668;BME280;24099;47.102;15.440;2023-04-15T05:00:32;95849.34;;;5.38;100.00
3668;BME280;24099;47.102;15.440;2023-04-15T05:03:00;95851.03;;;5.31;100.00
3668;BME280;24099;47.102;15.440;2023-04-15T05:05:28;95859.66;;;5.46;100.00
3668;BME280;24099;47.102;15.440;2023-04-15T05:07:56;95857.13;;;5.52;100.00
3668;BME280;24099;47.102;15.440;2023-04-15T05:10:23;95862.72;;;5.49;100.00
3668;BME280;24099;47.102;15.440;2023-04-15T05:12:53;95861.72;;;5.50;100.00
3668;BME280;24099;47.102;15.440;2023-04-15T05:15:21;95864.97;;;5.52;100.00
3668;BME280;24099;47.102;15.440;2023-04-15T05:17:49;95874.41;;;5.53;100.00
3668;BME280;24099;47.102;15.440;2023-04-15T05:20:17;95878.47;;;5.56;100.00
3668;BME280;24099;47.102;15.440;2023-04-15T05:22:45;95875.84;;;5.56;100.00
3668;BME280;24099;47.102;15.440;2023-04-15T05:25:13;95874.06;;;5.57;100.00
3668;BME280;24099;47.102;15.440;2023-04-15T05:27:41;95878.47;;;5.56;100.00
3668;BME280;24099;47.102;15.440;2023-04-15T05:30:11;95883.50;;;5.58;100.00
3668;BME280;24099;47.102;15.440;2023-04-15T05:32:39;95888.16;;;5.62;100.00
3668;BME280;24099;47.102;15.440;2023-04-15T05:35:07;95884.50;;;5.57;100.00
3668;BME280;24099;47.102;15.440;2023-04-15T05:37:35;95900.88;;;5.50;100.00
3668;BME280;24099;47.102;15.440;2023-04-15T05:40:03;95895.56;;;5.59;100.00
3668;BME280;24099;47.102;15.440;2023-04-15T05:42:34;95892.94;;;5.59;100.00
3668;BME280;24099;47.102;15.440;2023-04-15T05:45:03;95900.69;;;5.52;100.00
3668;BME280;24099;47.102;15.440;2023-04-15T05:47:35;95902.00;;;5.63;100.00
3668;BME280;24099;47.102;15.440;2023-04-15T05:50:04;95908.50;;;5.67;100.00
3668;BME280;24099;47.102;15.440;2023-04-15T05:52:32;95903.09;;;5.68;100.00
3668;BME280;24099;47.102;15.440;2023-04-15T05:55:00;95910.09;;;5.68;100.00
3668;BME280;24099;47.102;15.440;2023-04-15T05:57:28;95906.31;;;5.70;100.00
3668;BME280;24099;47.102;15.440;2023-04-15T05:59:57;95921.91;;;5.78;100.00
3668;BME280;24099;47.102;15.440;2023-04-15T06:02:24;95909.38;;;5.74;100.00
3668;BME280;24099;47.102;15.440;2023-04-15T06:04:54;95922.72;;;5.79;100.00
3668;BME280;24099;47.102;15.440;2023-04-15T06:07:24;95924.75;;;5.83;100.00
3668;BME280;24099;47.102;15.440;2023-04-15T06:09:51;95915.94;;;5.84;100.00
3668;BME280;24099;47.102;15.440;2023-04-15T06:12:19;95926.66;;;5.90;100.00
3668;BME280;24099;47.102;15.440;2023-04-15T06:14:47;95927.47;;;5.90;100.00
3668;BME280;24099;47.102;15.440;2023-04-15T06:17:15;95929.09;;;5.91;100.00
3668;BME280;24099;47.102;15.440;2023-04-15T06:19:45;95925.75;;;5.97;100.00
3668;BME280;24099;47.102;15.440;2023-04-15T06:22:14;95935.91;;;6.07;100.00
3668;BME280;24099;47.102;15.440;2023-04-15T06:24:42;95928.25;;;6.05;100.00
3668;BME280;24099;47.102;15.440;2023-04-15T06:27:10;95938.31;;;6.08;100.00
3668;BME280;24099;47.102;15.440;2023-04-15T06:29:38;95936.78;;;6.14;100.00
3668;BME280;24099;47.102;15.440;2023-04-15T06:32:06;95941.22;;;6.13;100.00
3668;BME280;24099;47.102;15.440;2023-04-15T06:34:34;95937.41;;;6.16;100.00
3668;BME280;24099;47.102;15.440;2023-04-15T06:37:02;95944.63;;;6.14;100.00
3668;BME280;24099;47.102;15.440;2023-04-15T06:39:31;95939.44;;;6.20;100.00
3668;BME280;24099;47.102;15.440;2023-04-15T06:41:59;95950.34;;;6.24;100.00
3668;BME280;24099;47.102;15.440;2023-04-15T06:44:29;95945.94;;;6.25;100.00
3668;BME280;24099;47.102;15.440;2023-04-15T06:46:57;95945.56;;;6.28;100.00
3668;BME280;24099;47.102;15.440;2023-04-15T06:49:24;95951.41;;;6.30;100.00
3668;BME280;24099;47.102;15.440;2023-04-15T06:51:52;95952.69;;;6.34;100.00
3668;BME280;24099;47.102;15.440;2023-04-15T06:54:20;95958.16;;;6.39;100.00
3668;BME280;24099;47.102;15.440;2023-04-15T06:56:49;95968.22;;;6.42;100.00
3668;BME280;24099;47.102;15.440;2023-04-15T06:59:17;95963.81;;;6.42;100.00
3668;BME280;24099;47.102;15.440;2023-04-15T07:01:45;95973.06;;;6.45;100.00
3668;BME280;24099;47.102;15.440;2023-04-15T07:04:13;95973.25;;;6.43;100.00
3668;BME280;24099;47.102;15.440;2023-04-15T07:06:41;95982.53;;;6.46;100.00
3668;BME280;24099;47.102;15.440;2023-04-15T07:09:10;95983.34;;;6.46;100.00
3668;BME280;24099;47.102;15.440;2023-04-15T07:11:38;95984.34;;;6.45;100.00
3668;BME280;24099;47.102;15.440;2023-04-15T07:14:07;95987.78;;;6.46;100.00
3668;BME280;24099;47.102;15.440;2023-04-15T07:16:35;95985.97;;;6.46;100.00
3668;BME280;24099;47.102;15.440;2023-04-15T07:19:02;95989.03;;;6.50;100.00
3668;BME280;24099;47.102;15.440;2023-04-15T07:21:30;95994.56;;;6.62;100.00
3668;BME280;24099;47.102;15.440;2023-04-15T07:23:59;95989.31;;;6.62;100.00
3668;BME280;24099;47.102;15.440;2023-04-15T07:26:33;95991.75;;;6.63;100.00
3668;BME280;24099;47.102;15.440;2023-04-15T07:29:00;95992.88;;;6.54;100.00
3668;BME280;24099;47.102;15.440;2023-04-15T07:31:31;95996.94;;;6.56;100.00
3668;BME280;24099;47.102;15.440;2023-04-15T07:33:59;95998.56;;;6.57;100.00
3668;BME280;24099;47.102;15.440;2023-04-15T07:36:28;96001.72;;;6.53;100.00
3668;BME280;24099;47.102;15.440;2023-04-15T07:38:57;95991.00;;;6.48;100.00
3668;BME280;24099;47.102;15.440;2023-04-15T07:41:36;95998.66;;;6.49;100.00
3668;BME280;24099;47.102;15.440;2023-04-15T07:44:05;95997.50;;;6.52;100.00
3668;BME280;24099;47.102;15.440;2023-04-15T07:46:35;95987.22;;;6.50;100.00
3668;BME280;24099;47.102;15.440;2023-04-15T07:49:04;95997.34;;;6.60;100.00
3668;BME280;24099;47.102;15.440;2023-04-15T07:51:32;96002.84;;;6.65;100.00
3668;BME280;24099;47.102;15.440;2023-04-15T07:54:01;96007.00;;;6.60;100.00
3668;BME280;24099;47.102;15.440;2023-04-15T07:56:32;96001.66;;;6.68;100.00
3668;BME280;24099;47.102;15.440;2023-04-15T07:59:00;96011.50;;;6.66;100.00
3668;BME280;24099;47.102;15.440;2023-04-15T08:01:30;96014.00;;;6.74;100.00
3668;BME280;24099;47.102;15.440;2023-04-15T08:03:59;96010.25;;;6.83;100.00
3668;BME280;24099;47.102;15.440;2023-04-15T08:06:28;96018.59;;;6.93;100.00
3668;BME280;24099;47.102;15.440;2023-04-15T08:08:56;96019.16;;;6.88;100.00
3668;BME280;24099;47.102;15.440;2023-04-15T08:11:25;96014.09;;;7.08;100.00
3668;BME280;24099;47.102;15.440;2023-04-15T08:13:53;96020.41;;;6.93;100.00
3668;BME280;24099;47.102;15.440;2023-04-15T08:16:23;96024.03;;;6.91;100.00
3668;BME280;24099;47.102;15.440;2023-04-15T08:18:52;96024.31;;;7.03;100.00
3668;BME280;24099;47.102;15.440;2023-04-15T08:21:22;96027.19;;;7.08;100.00
3668;BME280;24099;47.102;15.440;2023-04-15T08:24:08;96024.13;;;7.05;100.00
3668;BME280;24099;47.102;15.440;2023-04-15T08:26:36;96028.16;;;7.29;100.00
3668;BME280;24099;47.102;15.440;2023-04-15T08:29:04;96021.41;;;7.41;100.00
3668;BME280;24099;47.102;15.440;2023-04-15T08:31:33;96025.81;;;7.40;100.00
3668;BME280;24099;47.102;15.440;2023-04-15T08:34:10;96032.50;;;7.43;100.00
3668;BME280;24099;47.102;15.440;2023-04-15T08:36:41;96029.19;;;7.62;100.00
3668;BME280;24099;47.102;15.440;2023-04-15T08:39:09;96025.53;;;7.84;100.00
3668;BME280;24099;47.102;15.440;2023-04-15T08:41:41;96021.94;;;7.57;100.00
3668;BME280;24099;47.102;15.440;2023-04-15T08:44:13;96025.63;;;7.70;100.00
3668;BME280;24099;47.102;15.440;2023-04-15T08:46:41;96021.78;;;7.66;100.00
3668;BME280;24099;47.102;15.440;2023-04-15T08:49:10;96017.72;;;7.63;100.00
3668;BME280;24099;47.102;15.440;2023-04-15T08:51:40;96018.59;;;7.70;100.00
3668;BME280;24099;47.102;15.440;2023-04-15T08:54:08;96015.78;;;7.72;100.00
3668;BME280;24099;47.102;15.440;2023-04-15T08:56:38;96015.22;;;7.83;100.00
3668;BME280;24099;47.102;15.440;2023-04-15T08:59:06;96011.84;;;7.89;100.00
3668;BME280;24099;47.102;15.440;2023-04-15T09:01:36;96008.59;;;7.87;100.00
3668;BME280;24099;47.102;15.440;2023-04-15T09:04:05;96011.66;;;7.90;100.00
3668;BME280;24099;47.102;15.440;2023-04-15T09:06:34;96012.09;;;7.94;100.00
3668;BME280;24099;47.102;15.440;2023-04-15T09:09:04;96012.78;;;7.75;100.00
3668;BME280;24099;47.102;15.440;2023-04-15T09:11:32;96012.09;;;7.94;100.00
3668;BME280;24099;47.102;15.440;2023-04-15T09:13:59;96015.03;;;7.78;100.00
3668;BME280;24099;47.102;15.440;2023-04-15T09:16:27;96016.00;;;8.11;100.00
3668;BME280;24099;47.102;15.440;2023-04-15T09:18:55;96013.91;;;8.00;100.00
3668;BME280;24099;47.102;15.440;2023-04-15T09:21:24;96008.38;;;8.23;100.00
3668;BME280;24099;47.102;15.440;2023-04-15T09:23:55;96005.22;;;8.41;100.00
3668;BME280;24099;47.102;15.440;2023-04-15T09:26:32;96009.13;;;8.51;100.00
3668;BME280;24099;47.102;15.440;2023-04-15T09:29:04;96012.56;;;8.65;100.00
3668;BME280;24099;47.102;15.440;2023-04-15T09:31:37;96008.72;;;8.54;100.00
3668;BME280;24099;47.102;15.440;2023-04-15T09:34:12;96006.75;;;8.70;100.00
3668;BME280;24099;47.102;15.440;2023-04-15T09:36:53;96004.69;;;8.52;100.00
3668;BME280;24099;47.102;15.440;2023-04-15T09:39:21;96009.94;;;8.65;100.00
3668;BME280;24099;47.102;15.440;2023-04-15T09:42:06;96007.50;;;8.50;100.00
3668;BME280;24099;47.102;15.440;2023-04-15T09:44:34;95999.25;;;8.60;100.00
3668;BME280;24099;47.102;15.440;2023-04-15T09:47:03;96013.81;;;8.69;100.00
3668;BME280;24099;47.102;15.440;2023-04-15T09:49:32;96008.13;;;8.66;100.00
3668;BME280;24099;47.102;15.440;2023-04-15T09:52:06;96009.38;;;8.76;100.00
3668;BME280;24099;47.102;15.440;2023-04-15T09:54:36;96009.78;;;8.25;100.00
3668;BME280;24099;47.102;15.440;2023-04-15T09:57:07;95997.91;;;8.29;100.00
3668;BME280;24099;47.102;15.440;2023-04-15T09:59:51;96007.78;;;8.75;100.00
3668;BME280;24099;47.102;15.440;2023-04-15T10:02:19;96003.94;;;8.78;100.00
3668;BME280;24099;47.102;15.440;2023-04-15T10:04:52;96004.47;;;8.60;100.00
3668;BME280;24099;47.102;15.440;2023-04-15T10:07:25;96011.00;;;8.84;100.00
3668;BME280;24099;47.102;15.440;2023-04-15T10:09:55;96014.66;;;8.96;100.00
3668;BME280;24099;47.102;15.440;2023-04-15T10:12:29;96010.00;;;8.91;100.00
3668;BME280;24099;47.102;15.440;2023-04-15T10:15:25;96019.50;;;9.06;100.00
3668;BME280;24099;47.102;15.440;2023-04-15T10:17:56;96020.31;;;9.19;100.00
3668;BME280;24099;47.102;15.440;2023-04-15T10:20:24;96005.97;;;9.02;100.00
3668;BME280;24099;47.102;15.440;2023-04-15T10:22:56;96002.34;;;9.10;100.00
3668;BME280;24099;47.102;15.440;2023-04-15T10:25:29;95993.28;;;9.32;100.00
3668;BME280;24099;47.102;15.440;2023-04-15T10:28:00;96001.34;;;9.04;100.00
3668;BME280;24099;47.102;15.440;2023-04-15T10:30:29;96002.56;;;9.08;100.00
3668;BME280;24099;47.102;15.440;2023-04-15T10:33:01;96010.84;;;9.12;100.00
3668;BME280;24099;47.102;15.440;2023-04-15T10:35:30;96007.59;;;9.10;100.00
3668;BME280;24099;47.102;15.440;2023-04-15T10:37:59;96008.22;;;9.25;100.00
3668;BME280;24099;47.102;15.440;2023-04-15T10:40:29;96009.81;;;9.13;100.00
3668;BME280;24099;47.102;15.440;2023-04-15T10:43:00;96009.22;;;9.24;100.00
3668;BME280;24099;47.102;15.440;2023-04-15T10:45:32;96005.16;;;9.21;100.00
3668;BME280;24099;47.102;15.440;2023-04-15T10:48:02;96009.00;;;9.45;100.00
3668;BME280;24099;47.102;15.440;2023-04-15T10:50:31;96014.88;;;9.08;100.00
3668;BME280;24099;47.102;15.440;2023-04-15T10:53:01;96007.97;;;9.00;100.00
3668;BME280;24099;47.102;15.440;2023-04-15T10:55:32;96006.94;;;8.81;100.00
3668;BME280;24099;47.102;15.440;2023-04-15T10:58:02;96017.28;;;9.09;100.00
3668;BME280;24099;47.102;15.440;2023-04-15T11:00:31;96009.38;;;8.76;100.00
3668;BME280;24099;47.102;15.440;2023-04-15T11:03:05;96013.84;;;9.22;100.00
3668;BME280;24099;47.102;15.440;2023-04-15T11:05:50;96004.34;;;9.47;100.00
3668;BME280;24099;47.102;15.440;2023-04-15T11:08:18;96004.19;;;9.36;100.00
3668;BME280;24099;47.102;15.440;2023-04-15T11:10:54;96002.16;;;9.38;100.00
3668;BME280;24099;47.102;15.440;2023-04-15T11:13:25;96005.59;;;9.38;100.00
3668;BME280;24099;47.102;15.440;2023-04-15T11:16:01;96015.47;;;9.49;100.00
3668;BME280;24099;47.102;15.440;2023-04-15T11:18:33;96015.09;;;9.32;100.00
3668;BME280;24099;47.102;15.440;2023-04-15T11:21:06;96017.50;;;9.27;100.00
3668;BME280;24099;47.102;15.440;2023-04-15T11:23:36;96008.41;;;9.50;100.00
3668;BME280;24099;47.102;15.440;2023-04-15T11:26:06;96015.06;;;9.59;100.00
3668;BME280;24099;47.102;15.440;2023-04-15T11:28:40;96008.19;;;9.45;100.00
3668;BME280;24099;47.102;15.440;2023-04-15T11:31:12;96010.63;;;9.53;100.00
3668;BME280;24099;47.102;15.440;2023-04-15T11:33:54;96010.81;;;9.71;100.00
3668;BME280;24099;47.102;15.440;2023-04-15T11:36:27;96011.41;;;9.66;100.00
3668;BME280;24099;47.102;15.440;2023-04-15T11:38:57;96013.88;;;9.35;100.00
3668;BME280;24099;47.102;15.440;2023-04-15T11:41:25;96016.88;;;9.52;100.00
3668;BME280;24099;47.102;15.440;2023-04-15T11:43:56;96009.22;;;9.57;100.00
3668;BME280;24099;47.102;15.440;2023-04-15T11:46:29;95993.66;;;9.49;100.00
3668;BME280;24099;47.102;15.440;2023-04-15T11:48:57;95999.69;;;9.62;100.00
3668;BME280;24099;47.102;15.440;2023-04-15T11:51:25;96004.34;;;9.67;100.00
3668;BME280;24099;47.102;15.440;2023-04-15T11:53:53;96007.16;;;9.79;100.00
3668;BME280;24099;47.102;15.440;2023-04-15T11:56:24;96003.94;;;9.77;100.00
3668;BME280;24099;47.102;15.440;2023-04-15T11:58:55;96008.19;;;9.45;100.00
3668;BME280;24099;47.102;15.440;2023-04-15T12:01:30;96009.78;;;9.65;100.00
3668;BME280;24099;47.102;15.440;2023-04-15T12:04:16;96008.94;;;9.91;100.00
3668;BME280;24099;47.102;15.440;2023-04-15T12:06:46;96009.78;;;9.65;100.00
3668;BME280;24099;47.102;15.440;2023-04-15T12:09:14;96006.19;;;9.53;100.00
3668;BME280;24099;47.102;15.440;2023-04-15T12:11:44;95995.84;;;9.72;100.00
3668;BME280;24099;47.102;15.440;2023-04-15T12:14:18;96001.31;;;9.63;100.00
3668;BME280;24099;47.102;15.440;2023-04-15T12:16:47;96002.91;;;9.78;100.00
3668;BME280;24099;47.102;15.440;2023-04-15T12:19:21;96002.06;;;9.90;100.00
3668;BME280;24099;47.102;15.440;2023-04-15T12:21:51;96013.38;;;9.91;100.00
3668;BME280;24099;47.102;15.440;2023-04-15T12:24:20;96015.16;;;10.03;100.00
3668;BME280;24099;47.102;15.440;2023-04-15T12:26:50;96020.88;;;9.87;100.00
3668;BME280;24099;47.102;15.440;2023-04-15T12:29:25;96015.81;;;9.99;100.00
3668;BME280;24099;47.102;15.440;2023-04-15T12:32:05;96005.66;;;10.02;100.00
3668;BME280;24099;47.102;15.440;2023-04-15T12:34:39;96010.97;;;9.83;100.00
3668;BME280;24099;47.102;15.440;2023-04-15T12:37:10;96015.06;;;9.46;100.00
3668;BME280;24099;47.102;15.440;2023-04-15T12:39:41;96021.13;;;9.46;100.00
3668;BME280;24099;47.102;15.440;2023-04-15T12:42:09;96026.31;;;9.92;100.00
3668;BME280;24099;47.102;15.440;2023-04-15T12:44:38;96022.19;;;10.29;100.00
3668;BME280;24099;47.102;15.440;2023-04-15T12:47:09;96015.38;;;10.02;100.00
3668;BME280;24099;47.102;15.440;2023-04-15T12:49:41;96026.91;;;10.01;100.00
3668;BME280;24099;47.102;15.440;2023-04-15T12:52:17;96025.38;;;9.54;100.00
3668;BME280;24099;47.102;15.440;2023-04-15T12:54:45;96027.94;;;9.87;100.00
3668;BME280;24099;47.102;15.440;2023-04-15T12:57:13;96034.41;;;9.84;100.00
3668;BME280;24099;47.102;15.440;2023-04-15T12:59:44;96032.34;;;10.19;100.00
3668;BME280;24099;47.102;15.440;2023-04-15T13:02:14;96035.63;;;9.95;100.00
3668;BME280;24099;47.102;15.440;2023-04-15T13:04:43;96028.72;;;10.00;100.00
3668;BME280;24099;47.102;15.440;2023-04-15T13:07:16;96029.34;;;9.96;100.00
3668;BME280;24099;47.102;15.440;2023-04-15T13:09:44;96041.25;;;10.05;100.00
3668;BME280;24099;47.102;15.440;2023-04-15T13:12:15;96047.16;;;9.94;100.00